Time;durP1;ratioP1;P1;durP2;ratioP2;P2;SDS_P1;SDS_P2;PMS_P1;PMS_P2;Temp;Humidity;BMP_temperature;BMP_pressure;BME280_temperature;BME280_humidity;BME280_pressure;Samples;Min_cycle;Max_cycle;Signal;HPM_P1;HPM_P2
2022/03/24 00:02:14;;;;;;;28.87;22.27;;;10.50;79.50;;;;;;4929166;29;20203;-78
2022/03/24 00:04:41;;;;;;;30.67;22.87;;;10.50;80.90;;;;;;4933469;29;20231;-78
2022/03/24 00:07:09;;;;;;;31.85;24.23;;;10.50;79.20;;;;;;4932543;28;20207;-78
2022/03/24 00:09:36;;;;;;;33.23;24.50;;;10.50;78.00;;;;;;4913712;29;20206;-78
2022/03/24 00:12:06;;;;;;;28.17;22.90;;;10.50;77.70;;;;;;4931679;29;20225;-78
2022/03/24 00:14:34;;;;;;;28.83;23.37;;;10.40;80.30;;;;;;4916758;29;20242;-77
2022/03/24 00:17:02;;;;;;;29.93;23.10;;;10.30;80.80;;;;;;4932567;28;20230;-76
2022/03/24 00:19:30;;;;;;;30.60;24.10;;;10.20;81.60;;;;;;4922017;29;20218;-75
2022/03/24 00:21:57;;;;;;;31.77;23.97;;;10.20;80.90;;;;;;4939526;29;20210;-78
2022/03/24 00:24:25;;;;;;;32.50;23.73;;;10.30;79.80;;;;;;4919164;29;20214;-78
2022/03/24 00:26:53;;;;;;;33.63;24.93;;;10.20;79.80;;;;;;4933613;29;20195;-78
2022/03/24 00:29:21;;;;;;;35.00;25.33;;;10.10;81.10;;;;;;4922936;29;20202;-78
2022/03/24 00:31:49;;;;;;;34.63;26.00;;;10.00;81.00;;;;;;4933546;29;20199;-78
2022/03/24 00:34:18;;;;;;;31.70;24.83;;;10.20;80.70;;;;;;4930832;29;20655;-77
2022/03/24 00:36:46;;;;;;;33.07;25.40;;;10.00;81.00;;;;;;4915467;29;20599;-78
2022/03/24 00:39:13;;;;;;;32.70;26.40;;;10.00;83.20;;;;;;4946410;28;20209;-76
2022/03/24 00:41:42;;;;;;;31.53;25.93;;;9.90;82.10;;;;;;4932923;29;20199;-77
2022/03/24 00:44:09;;;;;;;34.67;26.73;;;9.80;83.90;;;;;;4921576;29;20206;-78
2022/03/24 00:46:38;;;;;;;38.37;27.27;;;9.60;84.50;;;;;;4931303;29;20219;-77
2022/03/24 00:49:06;;;;;;;34.10;25.37;;;9.60;84.20;;;;;;4921093;29;20203;-77
2022/03/24 00:51:33;;;;;;;35.90;26.50;;;9.60;82.60;;;;;;4949511;28;20214;-78
2022/03/24 00:54:01;;;;;;;34.63;26.40;;;9.50;83.40;;;;;;4919757;29;20226;-78
2022/03/24 00:56:28;;;;;;;36.07;25.70;;;9.40;86.40;;;;;;4938189;29;20222;-77
2022/03/24 00:58:56;;;;;;;35.53;27.00;;;9.50;86.80;;;;;;4935637;29;20572;-77
2022/03/24 01:01:24;;;;;;;35.20;27.97;;;9.50;86.30;;;;;;4934346;29;20203;-76
2022/03/24 01:03:52;;;;;;;33.57;25.63;;;9.60;87.40;;;;;;4915926;29;20214;-78
2022/03/24 01:06:25;;;;;;;32.80;25.30;;;9.60;90.00;;;;;;4919826;29;20229;-78
2022/03/24 01:09:09;;;;;;;31.23;25.77;;;9.70;90.60;;;;;;4931405;29;20206;-77
2022/03/24 01:11:37;;;;;;;34.43;26.27;;;9.70;91.10;;;;;;4931781;29;20214;-78
2022/03/24 01:14:05;;;;;;;35.23;26.47;;;9.60;91.60;;;;;;4936774;29;20585;-78
2022/03/24 01:16:34;;;;;;;33.27;25.00;;;9.60;90.80;;;;;;4919366;29;20242;-78
2022/03/24 01:19:04;;;;;;;31.20;25.50;;;9.60;90.40;;;;;;4913007;29;20207;-78
2022/03/24 01:21:54;;;;;;;32.97;24.70;;;9.80;90.50;;;;;;4929514;29;20662;-78
2022/03/24 01:24:24;;;;;;;33.67;25.60;;;9.60;90.20;;;;;;4930216;29;20202;-78
2022/03/24 01:26:51;;;;;;;31.80;25.67;;;9.50;91.30;;;;;;4946490;28;20221;-78
2022/03/24 01:29:21;;;;;;;33.10;25.33;;;9.50;92.30;;;;;;4947006;28;20195;-77
2022/03/24 01:31:48;;;;;;;32.63;25.37;;;9.40;92.90;;;;;;4948059;28;20218;-78
2022/03/24 01:34:17;;;;;;;31.10;25.43;;;9.40;93.20;;;;;;4931566;29;20210;-78
2022/03/24 01:36:45;;;;;;;32.47;26.67;;;9.40;93.10;;;;;;4920482;29;20191;-78
2022/03/24 01:39:12;;;;;;;38.70;28.33;;;9.30;92.60;;;;;;4930787;29;20203;-78
2022/03/24 01:41:40;;;;;;;35.10;27.13;;;9.10;92.30;;;;;;4934160;28;20199;-78
2022/03/24 01:44:12;;;;;;;33.13;26.80;;;8.80;93.20;;;;;;4930405;29;20203;-77
2022/03/24 01:46:53;;;;;;;34.70;26.30;;;9.00;94.00;;;;;;4938141;29;20215;-77
2022/03/24 01:49:22;;;;;;;34.90;26.83;;;9.10;93.00;;;;;;4929773;29;20199;-78
2022/03/24 01:51:50;;;;;;;35.03;25.40;;;9.10;93.70;;;;;;4931733;29;20203;-78
2022/03/24 01:54:18;;;;;;;32.77;24.57;;;9.00;94.40;;;;;;4918260;29;20207;-77
2022/03/24 01:56:46;;;;;;;36.83;27.07;;;9.00;94.20;;;;;;4930715;29;20576;-77
2022/03/24 01:59:16;;;;;;;38.17;25.43;;;9.00;94.70;;;;;;4934719;28;20222;-78
2022/03/24 02:01:45;;;;;;;34.73;26.50;;;9.10;94.70;;;;;;4924248;29;20207;-78
2022/03/24 02:04:13;;;;;;;32.73;26.53;;;9.20;94.10;;;;;;4946038;28;20202;-78
2022/03/24 02:06:43;;;;;;;33.83;26.23;;;9.00;94.10;;;;;;4931671;29;20199;-78
2022/03/24 02:09:11;;;;;;;34.73;26.17;;;9.10;94.20;;;;;;4911426;29;20191;-78
2022/03/24 02:11:39;;;;;;;40.33;28.53;;;9.30;92.70;;;;;;4935485;29;20207;-78
2022/03/24 02:14:07;;;;;;;35.83;28.17;;;9.40;92.10;;;;;;4914449;29;20288;-78
2022/03/24 02:16:36;;;;;;;36.97;27.40;;;9.30;91.40;;;;;;4931192;29;20222;-78
2022/03/24 02:19:12;;;;;;;40.53;28.13;;;9.30;91.70;;;;;;4916451;29;20234;-78
2022/03/24 02:21:40;;;;;;;35.10;27.43;;;8.90;91.30;;;;;;4916119;29;20207;-78
2022/03/24 02:24:10;;;;;;;34.60;27.10;;;8.70;92.20;;;;;;4935412;29;20262;-78
2022/03/24 02:26:40;;;;;;;35.40;26.90;;;8.60;93.40;;;;;;4920181;29;20207;-78
2022/03/24 02:29:11;;;;;;;34.47;26.80;;;8.80;94.00;;;;;;4934679;29;20207;-78
2022/03/24 02:31:40;;;;;;;34.43;26.67;;;8.80;94.60;;;;;;4931243;29;20214;-77
2022/03/24 02:36:55;;;;;;;36.40;26.73;;;8.60;94.90;;;;;;4948040;28;20199;-77
2022/03/24 02:39:25;;;;;;;33.73;25.70;;;8.40;94.80;;;;;;4929561;28;20239;-78
2022/03/24 02:41:54;;;;;;;36.30;25.80;;;8.50;95.90;;;;;;4932334;29;20211;-78
2022/03/24 02:44:24;;;;;;;31.87;24.57;;;8.70;95.00;;;;;;4926504;28;20218;-78
2022/03/24 02:46:53;;;;;;;37.03;25.87;;;8.50;95.00;;;;;;4914183;29;20207;-77
2022/03/24 02:49:23;;;;;;;35.00;25.50;;;8.30;96.10;;;;;;4918566;29;20199;-77
2022/03/24 02:51:51;;;;;;;35.23;26.47;;;8.20;96.70;;;;;;4931128;28;20210;-78
2022/03/24 02:54:18;;;;;;;38.27;26.27;;;8.30;96.30;;;;;;4932713;28;20673;-77
2022/03/24 02:56:48;;;;;;;33.03;25.63;;;8.40;96.50;;;;;;4932741;29;20223;-78
2022/03/24 02:59:16;;;;;;;32.13;24.37;;;8.40;96.80;;;;;;4933032;29;20226;-78
2022/03/24 03:01:55;;;;;;;33.10;24.87;;;8.40;97.50;;;;;;4930944;29;20577;-78
2022/03/24 03:04:23;;;;;;;35.30;25.20;;;8.30;98.00;;;;;;4930776;29;20206;-77
2022/03/24 03:06:54;;;;;;;32.40;24.57;;;8.10;97.90;;;;;;4929156;28;20214;-77
2022/03/24 03:09:24;;;;;;;38.73;27.47;;;8.00;97.70;;;;;;4928223;29;20195;-78
2022/03/24 03:11:53;;;;;;;38.17;26.73;;;8.20;96.80;;;;;;4918181;29;20194;-77
2022/03/24 03:14:21;;;;;;;35.70;26.00;;;8.00;96.10;;;;;;4931184;28;20226;-77
2022/03/24 03:16:49;;;;;;;34.33;25.23;;;7.90;97.50;;;;;;4930004;29;20214;-77
2022/03/24 03:19:19;;;;;;;37.53;26.47;;;8.10;98.00;;;;;;4931447;28;20231;-78
2022/03/24 03:21:49;;;;;;;33.77;24.53;;;8.40;97.20;;;;;;4933183;29;20196;-76
2022/03/24 03:24:18;;;;;;;39.37;25.83;;;8.30;96.20;;;;;;4948066;28;20821;-77
2022/03/24 03:26:45;;;;;;;38.60;25.40;;;8.30;95.70;;;;;;4932385;28;20214;-77
2022/03/24 03:29:15;;;;;;;31.43;25.63;;;8.10;96.60;;;;;;4935262;28;20199;-78
2022/03/24 03:31:42;;;;;;;34.67;26.10;;;8.00;98.10;;;;;;4919678;29;20207;-78
2022/03/24 03:34:12;;;;;;;38.10;27.17;;;8.00;98.20;;;;;;4929383;29;20553;-78
2022/03/24 03:36:40;;;;;;;37.73;25.90;;;8.10;97.20;;;;;;4944038;28;20214;-77
2022/03/24 03:39:08;;;;;;;37.13;28.13;;;8.20;96.00;;;;;;4917678;29;20214;-78
2022/03/24 03:41:36;;;;;;;38.03;25.60;;;7.70;96.50;;;;;;4916337;29;20228;-77
2022/03/24 03:44:05;;;;;;;34.17;25.50;;;7.70;97.50;;;;;;4916923;29;20207;-78
2022/03/24 03:46:35;;;;;;;35.87;25.40;;;7.60;97.50;;;;;;4929034;28;20230;-78
2022/03/24 03:49:02;;;;;;;38.43;27.27;;;7.70;98.00;;;;;;4930712;29;20199;-78
2022/03/24 03:51:31;;;;;;;37.90;27.70;;;8.00;97.30;;;;;;4930683;29;20225;-77
2022/03/24 03:53:59;;;;;;;37.53;28.90;;;8.00;96.70;;;;;;4931582;29;20218;-78
2022/03/24 03:56:27;;;;;;;35.67;24.77;;;7.70;97.00;;;;;;4930946;28;20225;-78
2022/03/24 03:58:54;;;;;;;35.10;26.17;;;7.70;97.90;;;;;;4929798;29;22282;-77
2022/03/24 04:01:22;;;;;;;36.00;26.43;;;7.80;97.90;;;;;;4945610;28;20206;-78
2022/03/24 04:03:50;;;;;;;36.03;26.50;;;7.60;98.30;;;;;;4928750;29;20206;-77
2022/03/24 04:06:18;;;;;;;32.37;24.93;;;7.60;98.90;;;;;;4927529;29;20227;-77
2022/03/24 04:08:45;;;;;;;32.87;24.60;;;7.60;99.20;;;;;;4927956;29;20207;-78
2022/03/24 04:11:13;;;;;;;32.57;25.87;;;7.60;99.00;;;;;;4931076;29;20708;-77
2022/03/24 04:13:42;;;;;;;34.50;24.97;;;7.50;99.50;;;;;;4913144;29;20207;-78
2022/03/24 04:16:12;;;;;;;33.43;25.93;;;7.70;99.30;;;;;;4943432;28;20231;-78
2022/03/24 04:19:19;;;;;;;31.50;25.23;;;7.80;98.80;;;;;;4928727;28;20246;-77
2022/03/24 04:21:48;;;;;;;37.03;26.27;;;7.80;99.20;;;;;;4925653;29;20210;-76
2022/03/24 04:24:15;;;;;;;32.60;24.70;;;7.80;99.10;;;;;;4927963;29;20203;-77
2022/03/24 04:26:43;;;;;;;33.37;24.73;;;7.70;99.30;;;;;;4928743;28;20211;-76
2022/03/24 04:29:10;;;;;;;33.83;23.73;;;7.60;99.70;;;;;;4933766;29;20211;-77
2022/03/24 04:31:37;;;;;;;31.70;23.27;;;7.60;99.50;;;;;;4931196;29;20229;-75
2022/03/24 04:34:05;;;;;;;35.50;25.27;;;7.50;99.50;;;;;;4935131;29;20202;-77
2022/03/24 04:36:32;;;;;;;35.93;25.63;;;7.40;99.90;;;;;;4929134;29;20218;-77
2022/03/24 04:39:02;;;;;;;34.93;24.87;;;7.40;99.90;;;;;;4931784;29;20589;-77
2022/03/24 04:41:31;;;;;;;31.60;24.30;;;7.40;99.90;;;;;;4928500;28;20199;-76
2022/03/24 04:43:58;;;;;;;35.90;25.63;;;7.50;99.90;;;;;;4942879;28;20206;-77
2022/03/24 04:46:25;;;;;;;35.27;25.50;;;7.50;99.90;;;;;;4909793;29;20230;-77
2022/03/24 04:48:53;;;;;;;36.93;27.37;;;7.50;99.90;;;;;;4913071;29;20202;-76
2022/03/24 04:51:20;;;;;;;35.87;25.93;;;7.50;99.90;;;;;;4931926;28;20206;-77
2022/03/24 04:53:47;;;;;;;32.87;26.07;;;7.50;99.90;;;;;;4915074;29;20215;-77
2022/03/24 04:56:16;;;;;;;35.60;27.03;;;7.60;99.70;;;;;;4924325;29;20219;-77
2022/03/24 04:58:44;;;;;;;38.63;26.70;;;7.40;99.20;;;;;;4914973;29;20320;-77
2022/03/24 05:01:13;;;;;;;38.80;27.93;;;7.30;99.90;;;;;;4937016;29;20211;-77
2022/03/24 05:03:42;;;;;;;34.77;26.83;;;7.30;99.90;;;;;;4932136;29;20203;-77
2022/03/24 05:06:10;;;;;;;38.30;28.00;;;7.10;99.90;;;;;;4930825;29;20230;-76
2022/03/24 05:08:37;;;;;;;41.50;27.10;;;7.20;99.90;;;;;;4935903;29;20221;-76
2022/03/24 05:11:04;;;;;;;40.57;29.03;;;7.10;99.90;;;;;;4931220;29;20578;-77
2022/03/24 05:13:33;;;;;;;36.70;26.93;;;7.20;99.90;;;;;;4931924;29;20688;-77
2022/03/24 05:16:01;;;;;;;40.23;28.80;;;7.30;99.90;;;;;;4914700;29;20231;-76
2022/03/24 05:18:28;;;;;;;39.80;28.20;;;7.50;99.90;;;;;;4916227;29;20210;-77
2022/03/24 05:20:56;;;;;;;38.30;28.23;;;7.50;99.50;;;;;;4931912;29;20222;-77
2022/03/24 05:23:23;;;;;;;38.63;28.70;;;7.40;99.90;;;;;;4913348;29;20214;-77
2022/03/24 05:25:50;;;;;;;39.73;30.17;;;7.40;99.90;;;;;;4932956;29;20230;-77
2022/03/24 05:28:18;;;;;;;40.83;31.07;;;7.40;99.70;;;;;;4940055;29;20436;-77
2022/03/24 05:30:47;;;;;;;39.57;29.63;;;7.30;98.90;;;;;;4931789;29;20191;-75
2022/03/24 05:33:14;;;;;;;39.23;29.43;;;7.50;98.90;;;;;;4932987;29;20199;-75
2022/03/24 05:35:42;;;;;;;44.07;29.90;;;7.40;97.90;;;;;;4913895;29;20215;-74
2022/03/24 05:38:09;;;;;;;41.63;29.67;;;7.40;98.70;;;;;;4944799;28;20203;-75
2022/03/24 05:40:37;;;;;;;41.00;28.60;;;7.50;98.70;;;;;;4932144;29;20233;-75
2022/03/24 05:43:04;;;;;;;38.67;28.93;;;7.40;98.50;;;;;;4930080;28;20218;-74
2022/03/24 05:45:33;;;;;;;40.20;29.03;;;7.40;98.60;;;;;;4932308;29;20747;-75
2022/03/24 05:48:02;;;;;;;42.13;30.30;;;7.50;98.20;;;;;;4934538;29;20211;-75
2022/03/24 05:50:51;;;;;;;38.50;28.17;;;7.20;98.30;;;;;;4921146;29;20676;-75
2022/03/24 05:53:25;;;;;;;42.93;32.23;;;7.20;98.90;;;;;;4943930;28;20203;-75
2022/03/24 05:55:52;;;;;;;48.23;35.67;;;7.30;98.90;;;;;;4931219;29;20222;-76
2022/03/24 05:58:20;;;;;;;57.03;37.63;;;7.50;98.00;;;;;;4931633;29;20214;-76
2022/03/24 06:00:47;;;;;;;48.20;33.70;;;7.50;98.10;;;;;;4911042;29;20233;-75
2022/03/24 06:03:17;;;;;;;43.97;30.73;;;7.30;98.20;;;;;;4935094;29;20217;-74
2022/03/24 06:05:48;;;;;;;40.13;29.20;;;7.10;98.70;;;;;;4926847;29;20233;-76
2022/03/24 06:08:16;;;;;;;40.50;29.40;;;6.80;99.90;;;;;;4912157;29;20206;-75
2022/03/24 06:10:43;;;;;;;44.57;30.93;;;7.20;99.90;;;;;;4933272;29;20215;-76
2022/03/24 06:13:11;;;;;;;46.87;34.97;;;7.40;99.90;;;;;;4914189;29;20203;-76
2022/03/24 06:15:39;;;;;;;51.70;33.30;;;7.40;98.70;;;;;;4928732;29;20247;-74
2022/03/24 06:18:06;;;;;;;46.23;32.47;;;7.50;98.20;;;;;;4944146;28;20218;-75
2022/03/24 06:20:38;;;;;;;44.13;32.37;;;7.60;97.90;;;;;;4913178;29;20231;-76
2022/03/24 06:23:05;;;;;;;42.17;31.83;;;7.80;97.80;;;;;;4942715;28;20214;-74
2022/03/24 06:25:33;;;;;;;39.93;30.97;;;7.90;97.70;;;;;;4928543;29;20234;-76
2022/03/24 06:28:00;;;;;;;44.70;33.30;;;7.90;98.10;;;;;;4944095;28;20584;-75
2022/03/24 06:30:29;;;;;;;46.43;32.60;;;8.00;97.70;;;;;;4919818;29;20203;-75
2022/03/24 06:32:57;;;;;;;45.03;32.03;;;8.10;97.70;;;;;;4944716;28;20214;-75
2022/03/24 06:35:25;;;;;;;49.30;34.97;;;8.20;97.60;;;;;;4928211;29;20223;-74
2022/03/24 06:37:54;;;;;;;48.97;33.80;;;7.90;98.90;;;;;;4928572;29;20211;-75
2022/03/24 06:40:22;;;;;;;45.07;34.83;;;7.90;98.40;;;;;;4929039;29;20681;-76
2022/03/24 06:42:50;;;;;;;45.87;33.50;;;7.80;98.40;;;;;;4926787;29;20222;-76
2022/03/24 06:45:18;;;;;;;44.47;32.23;;;7.80;99.10;;;;;;4927117;29;20231;-76
2022/03/24 06:47:46;;;;;;;46.00;33.80;;;7.90;99.10;;;;;;4928954;29;20215;-79
2022/03/24 06:50:15;;;;;;;49.93;36.17;;;8.00;98.50;;;;;;4916141;29;20199;-76
2022/03/24 06:52:43;;;;;;;47.27;35.23;;;7.80;99.00;;;;;;4916005;29;20669;-76
2022/03/24 06:55:16;;;;;;;42.53;32.57;;;8.00;99.90;;;;;;4915651;29;20247;-76
2022/03/24 06:57:44;;;;;;;44.63;35.47;;;8.30;99.90;;;;;;4930482;28;20203;-76
2022/03/24 07:00:14;;;;;;;47.03;32.23;;;8.40;99.50;;;;;;4929832;29;20227;-76
2022/03/24 07:02:46;;;;;;;40.70;30.77;;;8.70;98.60;;;;;;4943327;28;20199;-76
2022/03/24 07:05:14;;;;;;;45.30;31.57;;;8.80;98.00;;;;;;4930016;29;20222;-75
2022/03/24 07:07:43;;;;;;;41.67;32.43;;;8.80;95.80;;;;;;4925873;28;20211;-75
2022/03/24 07:10:13;;;;;;;41.27;31.90;;;8.80;96.00;;;;;;4914465;29;20203;-75
2022/03/24 07:12:41;;;;;;;44.40;32.00;;;9.20;95.80;;;;;;4913095;29;20226;-77
2022/03/24 07:15:11;;;;;;;42.37;31.97;;;9.50;95.20;;;;;;4924905;29;20640;-75
2022/03/24 07:17:39;;;;;;;47.87;32.90;;;9.40;95.40;;;;;;4909350;29;20210;-75
2022/03/24 07:20:08;;;;;;;45.03;31.33;;;9.20;95.20;;;;;;4939400;28;20226;-75
2022/03/24 07:22:36;;;;;;;48.03;33.87;;;9.40;95.60;;;;;;4927319;29;20207;-75
2022/03/24 07:25:05;;;;;;;46.47;33.03;;;9.60;95.40;;;;;;4916815;29;20229;-76
2022/03/24 07:27:37;;;;;;;45.70;32.10;;;9.80;96.10;;;;;;4905794;29;20204;-75
2022/03/24 07:30:06;;;;;;;45.33;32.20;;;10.00;95.00;;;;;;4920082;29;20204;-76
2022/03/24 07:32:34;;;;;;;43.20;32.90;;;10.20;94.40;;;;;;4903997;29;20208;-76
2022/03/24 07:35:01;;;;;;;43.77;31.50;;;10.20;94.40;;;;;;4904873;29;20227;-76
2022/03/24 07:37:31;;;;;;;46.20;33.77;;;10.30;92.20;;;;;;4941855;28;20613;-78
2022/03/24 07:39:58;;;;;;;45.47;32.87;;;10.60;91.50;;;;;;4914910;29;20195;-78
2022/03/24 07:42:26;;;;;;;50.63;34.47;;;10.40;91.90;;;;;;4913287;29;20548;-78
2022/03/24 07:44:54;;;;;;;49.17;34.67;;;10.50;91.70;;;;;;4942875;28;20223;-78
2022/03/24 07:47:22;;;;;;;60.07;33.67;;;10.70;91.00;;;;;;4927553;29;20249;-78
2022/03/24 07:49:49;;;;;;;45.93;33.20;;;10.90;90.50;;;;;;4925506;28;20207;-77
2022/03/24 07:52:18;;;;;;;50.67;35.43;;;10.90;90.30;;;;;;4922051;29;20215;-76
2022/03/24 07:54:59;;;;;;;47.47;33.33;;;11.00;89.40;;;;;;4925544;29;20231;-76
2022/03/24 07:57:30;;;;;;;46.50;32.95;;;11.10;90.60;;;;;;4924867;29;20214;-78
2022/03/24 08:00:00;;;;;;;51.43;34.73;;;11.20;90.30;;;;;;4914310;29;20199;-78
2022/03/24 08:02:27;;;;;;;46.03;32.47;;;11.50;88.40;;;;;;4940954;28;20199;-76
2022/03/24 08:04:55;;;;;;;46.72;33.08;;;11.60;85.40;;;;;;4910531;29;20222;-76
2022/03/24 08:07:22;;;;;;;48.53;33.47;;;11.70;84.90;;;;;;4938648;28;20704;-76
2022/03/24 08:09:50;;;;;;;46.78;33.90;;;11.70;82.80;;;;;;4909970;29;20207;-76
2022/03/24 08:12:19;;;;;;;41.20;32.33;;;11.80;83.20;;;;;;4910787;29;20195;-76
2022/03/24 08:14:46;;;;;;;44.93;33.93;;;11.90;82.50;;;;;;4907544;29;20219;-76
2022/03/24 08:17:15;;;;;;;48.38;34.10;;;11.90;81.60;;;;;;4924652;29;20203;-76
2022/03/24 08:19:45;;;;;;;47.30;34.35;;;11.90;81.30;;;;;;4921264;28;20215;-76
2022/03/24 08:22:12;;;;;;;42.90;34.20;;;11.80;81.00;;;;;;4908480;29;20207;-76
2022/03/24 08:24:40;;;;;;;46.03;34.30;;;12.00;80.60;;;;;;4927432;28;20231;-75
2022/03/24 08:27:07;;;;;;;43.17;33.38;;;12.00;79.00;;;;;;4913555;29;20308;-77
2022/03/24 08:29:35;;;;;;;45.58;33.67;;;12.00;78.90;;;;;;4913676;29;20205;-75
2022/03/24 08:32:03;;;;;;;43.30;33.25;;;12.10;79.50;;;;;;4915666;29;20207;-81
2022/03/24 08:34:32;;;;;;;42.33;34.10;;;12.20;79.80;;;;;;4913111;29;20207;-76
2022/03/24 08:36:59;;;;;;;49.30;36.17;;;12.30;79.00;;;;;;4930325;29;20203;-76
2022/03/24 08:39:26;;;;;;;48.85;35.00;;;12.30;78.70;;;;;;4930889;29;20211;-76
2022/03/24 08:41:54;;;;;;;44.72;34.28;;;12.40;78.60;;;;;;4929324;29;20219;-76
2022/03/24 08:44:21;;;;;;;48.03;35.65;;;12.50;78.30;;;;;;4936967;29;20207;-75
2022/03/24 08:46:49;;;;;;;46.38;34.72;;;12.60;76.80;;;;;;4916955;29;20217;-76
2022/03/24 08:49:16;;;;;;;52.33;35.33;;;12.60;77.50;;;;;;4949595;28;20214;-75
2022/03/24 08:51:45;;;;;;;47.17;35.30;;;12.70;77.30;;;;;;4932626;29;20200;-76
2022/03/24 08:54:13;;;;;;;48.45;37.10;;;12.80;75.20;;;;;;4918499;29;20206;-75
2022/03/24 08:56:40;;;;;;;46.30;35.28;;;12.90;75.30;;;;;;4932817;29;20207;-75
2022/03/24 08:59:08;;;;;;;50.92;37.13;;;13.00;78.60;;;;;;4948447;28;20195;-75
2022/03/24 09:01:37;;;;;;;52.15;36.60;;;13.00;78.20;;;;;;4934126;28;20238;-75
2022/03/24 09:04:04;;;;;;;47.30;35.30;;;13.00;76.80;;;;;;4932909;29;20210;-76
2022/03/24 09:06:32;;;;;;;53.15;37.30;;;13.20;77.30;;;;;;4931949;29;20712;-76
2022/03/24 09:09:00;;;;;;;50.60;36.10;;;13.10;75.20;;;;;;4932022;29;20202;-76
2022/03/24 09:11:28;;;;;;;47.13;35.80;;;13.20;75.80;;;;;;4928770;29;20199;-75
2022/03/24 09:13:56;;;;;;;48.65;36.33;;;13.40;75.80;;;;;;4916842;29;20206;-76
2022/03/24 09:16:23;;;;;;;49.28;35.85;;;13.50;75.20;;;;;;4932499;29;20704;-76
2022/03/24 09:18:51;;;;;;;47.60;36.72;;;13.60;75.00;;;;;;4948636;29;20218;-76
2022/03/24 09:21:18;;;;;;;46.83;35.92;;;13.80;72.60;;;;;;4934521;28;20226;-75
2022/03/24 09:23:46;;;;;;;48.78;37.40;;;13.80;70.30;;;;;;4933104;29;20207;-75
2022/03/24 09:26:15;;;;;;;47.38;38.10;;;13.80;70.60;;;;;;4931818;29;20231;-76
2022/03/24 09:28:42;;;;;;;46.42;37.70;;;14.00;70.40;;;;;;4932184;29;20242;-75
2022/03/24 09:31:10;;;;;;;46.53;35.40;;;14.00;69.60;;;;;;4916365;29;20195;-76
2022/03/24 09:33:37;;;;;;;51.55;37.58;;;14.10;69.30;;;;;;4948993;28;20203;-75
2022/03/24 09:36:05;;;;;;;49.00;37.72;;;14.30;68.20;;;;;;4952286;28;20227;-76
2022/03/24 09:38:32;;;;;;;47.13;36.17;;;14.30;68.20;;;;;;4924074;29;20210;-76
2022/03/24 09:41:00;;;;;;;50.80;38.90;;;14.30;67.20;;;;;;4913342;29;20195;-75
2022/03/24 09:43:30;;;;;;;48.88;37.78;;;14.30;65.00;;;;;;4917168;29;20206;-76
2022/03/24 09:45:58;;;;;;;46.83;37.63;;;14.50;65.60;;;;;;4911440;29;20227;-76
2022/03/24 09:48:26;;;;;;;49.90;37.08;;;14.70;64.80;;;;;;4912855;29;20200;-75
2022/03/24 09:50:54;;;;;;;47.53;37.38;;;14.70;61.50;;;;;;4922081;29;20203;-76
2022/03/24 09:53:23;;;;;;;52.58;37.17;;;14.90;61.40;;;;;;4931927;28;20199;-76
2022/03/24 09:55:53;;;;;;;51.80;38.72;;;15.10;61.30;;;;;;4948114;28;20685;-76
2022/03/24 09:58:25;;;;;;;48.17;37.25;;;15.10;62.30;;;;;;4929751;29;20200;-76
2022/03/24 10:00:54;;;;;;;50.33;38.47;;;15.00;63.10;;;;;;4917096;29;20701;-76
2022/03/24 10:03:26;;;;;;;46.05;36.67;;;15.20;62.80;;;;;;4932960;29;20661;-76
2022/03/24 10:06:02;;;;;;;52.22;39.80;;;15.30;59.60;;;;;;4920468;29;20226;-76
2022/03/24 10:08:30;;;;;;;49.15;37.08;;;15.50;59.30;;;;;;4920717;29;20213;-76
2022/03/24 10:10:59;;;;;;;45.88;36.63;;;15.60;58.80;;;;;;4933329;28;20199;-76
2022/03/24 10:13:42;;;;;;;47.85;36.13;;;15.80;57.90;;;;;;4917572;29;20199;-77
2022/03/24 10:16:13;;;;;;;46.55;35.10;;;15.90;56.10;;;;;;4932552;29;20234;-77
2022/03/24 10:18:56;;;;;;;49.35;38.28;;;15.90;56.00;;;;;;4918368;29;20214;-78
2022/03/24 10:21:24;;;;;;;48.75;37.55;;;15.90;57.60;;;;;;4944665;28;20551;-77
2022/03/24 10:23:52;;;;;;;50.33;38.10;;;16.10;57.90;;;;;;4932716;29;20203;-78
2022/03/24 10:26:19;;;;;;;47.17;36.72;;;15.90;58.90;;;;;;4921222;29;20219;-77
2022/03/24 10:28:58;;;;;;;50.72;36.10;;;16.10;57.30;;;;;;4918638;29;20199;-77
2022/03/24 10:31:34;;;;;;;41.55;35.35;;;16.30;54.90;;;;;;4936055;29;20207;-77
2022/03/24 10:34:02;;;;;;;44.67;33.55;;;16.40;53.70;;;;;;4914502;29;20566;-77
2022/03/24 10:36:30;;;;;;;43.00;35.70;;;16.50;52.90;;;;;;4900442;29;20235;-77
2022/03/24 10:39:04;;;;;;;48.00;36.40;;;16.70;52.40;;;;;;4918064;29;20206;-77
2022/03/24 10:41:33;;;;;;;40.03;33.45;;;16.80;52.30;;;;;;4916837;29;20531;-78
2022/03/24 10:44:05;;;;;;;37.22;31.58;;;17.00;50.90;;;;;;4934219;29;20218;-77
2022/03/24 10:46:36;;;;;;;39.15;32.05;;;17.10;50.10;;;;;;4918370;29;20246;-78
2022/03/24 10:49:17;;;;;;;36.85;31.40;;;17.10;47.90;;;;;;4933562;29;20207;-77
2022/03/24 10:51:45;;;;;;;38.75;32.45;;;17.00;45.90;;;;;;4922102;29;20203;-76
2022/03/24 10:54:24;;;;;;;38.78;30.70;;;16.90;46.40;;;;;;4928464;29;20199;-76
2022/03/24 10:57:04;;;;;;;37.60;32.45;;;17.10;46.60;;;;;;4897672;29;20659;-76
2022/03/24 10:59:36;;;;;;;38.22;32.13;;;17.30;46.00;;;;;;4929083;29;20207;-76
2022/03/24 11:02:05;;;;;;;36.97;31.23;;;17.40;46.40;;;;;;4915684;29;20230;-76
2022/03/24 11:04:32;;;;;;;34.88;30.75;;;17.40;46.20;;;;;;4916228;29;20202;-77
2022/03/24 11:07:00;;;;;;;33.08;29.17;;;17.60;45.90;;;;;;4929838;29;20203;-78
2022/03/24 11:09:30;;;;;;;36.22;30.15;;;17.80;45.10;;;;;;4929801;29;20215;-79
2022/03/24 11:12:38;;;;;;;36.63;28.23;;;17.80;43.30;;;;;;4918031;29;20210;-79
2022/03/24 11:15:08;;;;;;;34.88;28.80;;;18.00;42.50;;;;;;4916499;29;20230;-77
2022/03/24 11:17:38;;;;;;;34.60;29.80;;;18.00;41.00;;;;;;4934121;29;20215;-78
2022/03/24 11:20:24;;;;;;;33.08;29.50;;;18.30;41.40;;;;;;4932865;29;20219;-79
2022/03/24 11:22:55;;;;;;;35.80;30.40;;;18.50;41.20;;;;;;4919685;29;20685;-80
2022/03/24 11:25:25;;;;;;;33.55;29.55;;;18.70;42.30;;;;;;4930609;28;20223;-79
2022/03/24 11:27:54;;;;;;;34.90;28.50;;;18.70;41.00;;;;;;4932328;29;20207;-78
2022/03/24 11:30:23;;;;;;;36.53;31.65;;;18.70;40.10;;;;;;4936582;29;20207;-77
2022/03/24 11:32:54;;;;;;;34.00;28.95;;;18.70;39.50;;;;;;4931451;29;20259;-78
2022/03/24 11:35:22;;;;;;;35.58;30.15;;;18.70;39.50;;;;;;4948823;28;20241;-78
2022/03/24 11:37:50;;;;;;;39.08;32.78;;;18.90;40.90;;;;;;4932302;29;20210;-80
2022/03/24 11:40:20;;;;;;;41.90;35.42;;;18.90;42.50;;;;;;4928427;29;20215;-79
2022/03/24 11:42:51;;;;;;;38.65;32.40;;;19.10;43.70;;;;;;4918232;29;20222;-79
2022/03/24 11:45:21;;;;;;;40.25;34.22;;;19.50;42.40;;;;;;4919450;29;20231;-79
2022/03/24 11:48:02;;;;;;;38.90;32.40;;;19.20;42.00;;;;;;4929596;29;20273;-79
2022/03/24 11:50:40;;;;;;;39.85;31.98;;;19.50;41.60;;;;;;4944980;28;20218;-80
2022/03/24 11:53:16;;;;;;;39.22;33.13;;;19.80;41.30;;;;;;4930993;29;20199;-80
2022/03/24 11:56:18;;;;;;;36.63;31.42;;;19.80;40.10;;;;;;4929012;29;20225;-80
2022/03/24 11:59:21;;;;;;;38.30;30.27;;;19.80;41.70;;;;;;4924914;29;20207;-79
2022/03/24 12:02:16;;;;;;;34.05;30.30;;;20.10;40.00;;;;;;4914548;29;20232;-79
2022/03/24 12:04:46;;;;;;;35.67;30.77;;;20.30;37.00;;;;;;4936481;29;20229;-79
2022/03/24 12:07:19;;;;;;;34.80;29.88;;;19.90;38.30;;;;;;4937492;28;20213;-79
2022/03/24 12:10:02;;;;;;;37.58;32.35;;;20.30;39.30;;;;;;4947829;28;20221;-79
2022/03/24 12:12:31;;;;;;;35.75;31.88;;;20.60;38.10;;;;;;4930533;29;20202;-79
2022/03/24 12:14:59;;;;;;;38.50;33.63;;;20.00;40.30;;;;;;4940582;29;20246;-79
2022/03/24 12:17:31;;;;;;;36.47;31.92;;;20.30;39.30;;;;;;4935077;29;20207;-79
2022/03/24 12:20:01;;;;;;;39.10;32.80;;;20.80;39.80;;;;;;4937773;29;20215;-79
2022/03/24 12:22:44;;;;;;;38.00;33.28;;;20.70;39.50;;;;;;4951757;28;20215;-79
2022/03/24 12:25:39;;;;;;;38.03;32.83;;;20.70;37.90;;;;;;4950825;28;20223;-79
2022/03/24 12:28:23;;;;;;;37.63;32.92;;;20.90;36.30;;;;;;4895582;29;20213;-79
2022/03/24 12:31:04;;;;;;;37.08;31.33;;;20.70;37.30;;;;;;4943285;28;20210;-80
2022/03/24 12:33:40;;;;;;;38.17;31.55;;;20.30;37.40;;;;;;4947178;28;20221;-78
2022/03/24 12:36:13;;;;;;;39.30;33.83;;;20.80;36.70;;;;;;4915384;29;20213;-79
2022/03/24 12:38:49;;;;;;;39.15;33.88;;;21.10;36.20;;;;;;4930237;29;20222;-79
2022/03/24 12:41:20;;;;;;;37.70;32.72;;;21.10;35.40;;;;;;4929356;29;20214;-79
2022/03/24 12:43:49;;;;;;;35.80;31.63;;;21.00;35.50;;;;;;4943137;28;20212;-79
2022/03/24 12:46:23;;;;;;;39.97;34.55;;;20.30;38.00;;;;;;4945430;28;20242;-79
2022/03/24 12:48:51;;;;;;;39.83;35.05;;;20.30;36.20;;;;;;4912339;29;20203;-78
2022/03/24 12:51:22;;;;;;;37.80;33.60;;;19.90;36.60;;;;;;4927413;29;20222;-78